createdAt,value
2018-03-22T09:47:47.682Z,405
2018-03-22T09:48:32.399Z,400
2018-03-22T09:49:17.096Z,390
2018-03-22T09:50:01.798Z,390
2018-03-22T09:50:46.507Z,385
2018-03-22T09:51:31.241Z,380
2018-03-22T09:52:15.970Z,375
2018-03-22T09:53:00.676Z,375
2018-03-22T09:53:45.436Z,380
2018-03-22T09:54:30.094Z,385
2018-03-22T09:55:14.827Z,395
2018-03-22T09:55:59.551Z,400
2018-03-22T09:56:44.263Z,405
2018-03-22T09:57:28.963Z,420
2018-03-22T09:58:13.677Z,430
2018-03-22T09:58:58.387Z,450
2018-03-22T09:59:43.089Z,455
2018-03-22T10:00:27.801Z,465
2018-03-22T10:01:12.510Z,455
2018-03-22T10:01:57.268Z,465
2018-03-22T10:02:42.001Z,465
2018-03-22T10:03:26.708Z,455
2018-03-22T10:04:11.422Z,445
2018-03-22T10:04:56.154Z,430
2018-03-22T10:05:40.867Z,410
2018-03-22T10:06:25.578Z,395
2018-03-22T10:07:10.308Z,380
2018-03-22T10:07:55.023Z,365
2018-03-22T10:08:39.760Z,360
2018-03-22T10:09:24.469Z,360
2018-03-22T10:10:09.167Z,370
2018-03-22T10:10:53.880Z,380
2018-03-22T10:11:38.589Z,395
2018-03-22T10:12:23.355Z,415
2018-03-22T10:13:08.129Z,425
2018-03-22T10:13:52.839Z,445
2018-03-22T10:14:37.548Z,465
2018-03-22T10:15:22.304Z,495
2018-03-22T10:16:07.015Z,510
2018-03-22T10:16:51.724Z,525
2018-03-22T10:17:36.414Z,530
2018-03-22T10:18:21.131Z,540
2018-03-22T10:19:05.838Z,555
2018-03-22T10:19:50.574Z,565
2018-03-22T10:20:35.284Z,575
2018-03-22T10:21:19.989Z,590
2018-03-22T10:22:04.700Z,600
2018-03-22T10:22:49.418Z,610
2018-03-22T10:23:34.163Z,625
2018-03-22T10:24:18.876Z,635
2018-03-22T10:25:03.579Z,645
2018-03-22T10:25:48.292Z,655
2018-03-22T10:26:33.101Z,655
2018-03-22T10:27:17.785Z,665
2018-03-22T10:28:02.489Z,675
2018-03-22T10:28:47.206Z,675
2018-03-22T10:29:31.946Z,685
2018-03-22T10:30:16.683Z,680
2018-03-22T10:31:01.414Z,670
2018-03-22T10:31:46.129Z,660
2018-03-22T10:32:30.837Z,645
2018-03-22T10:33:15.551Z,630
2018-03-22T10:34:00.289Z,610
2018-03-22T10:34:44.995Z,595
2018-03-22T10:35:29.709Z,575
2018-03-22T10:36:14.418Z,560
2018-03-22T10:36:59.131Z,545
2018-03-22T10:37:43.865Z,530
2018-03-22T10:38:28.579Z,520
2018-03-22T10:39:13.288Z,515
2018-03-22T10:39:58.002Z,505
2018-03-22T10:40:42.736Z,500
2018-03-22T10:41:27.446Z,495
2018-03-22T10:42:12.160Z,490
2018-03-22T10:42:56.894Z,485
2018-03-22T10:43:41.607Z,475
2018-03-22T10:44:26.320Z,465
2018-03-22T10:45:11.028Z,460
2018-03-22T10:45:55.742Z,460
2018-03-22T10:46:40.474Z,460
2018-03-22T10:47:25.185Z,465
2018-03-22T10:48:09.897Z,470
2018-03-22T10:48:54.608Z,470
2018-03-22T10:49:39.389Z,470
2018-03-22T10:50:24.102Z,475
2018-03-22T10:51:08.815Z,480
2018-03-22T10:51:53.550Z,480
2018-03-22T10:52:38.284Z,480
2018-03-22T10:53:22.993Z,480
2018-03-22T10:54:07.726Z,475
2018-03-22T10:54:52.435Z,475
2018-03-22T10:55:37.143Z,475
2018-03-22T10:56:21.858Z,475
2018-03-22T10:57:06.599Z,475
2018-03-22T10:57:51.327Z,475
2018-03-22T10:58:36.035Z,480
2018-03-22T10:59:20.745Z,480
2018-03-22T11:00:05.454Z,480
2018-03-22T11:00:50.167Z,480
2018-03-22T11:01:34.875Z,480
2018-03-22T11:02:19.610Z,465
2018-03-22T11:03:04.375Z,455
2018-03-22T11:03:49.077Z,435
2018-03-22T11:04:33.786Z,415
2018-03-22T11:05:18.497Z,405
2018-03-22T11:06:03.208Z,390
2018-03-22T11:06:47.918Z,385
2018-03-22T11:07:32.651Z,385
2018-03-22T11:08:17.359Z,390
2018-03-22T11:09:02.073Z,395
